PWSweather.com
Personal Weather Stations
Station Observations
WISCHPK61
Green Bay Schmitt Park, Green Bay, WI 54311

Green Bay Schmitt ParkGreen Bay, WI 54311

Lat: 44.514277, Lon: -87.935067

Elevation: 735

Station Type: Acu Rite Pro Weather Center model 02032C

http://greenbayweathercam.com

High Low Average
Temperature 30.0°F-1.1°C 12.9°F-10.6°C 22.4°F-5.3°C
Dew Point 28.8°F-1.8°C 12.6°F-10.8°C 21.2°F-6.0°C
Winds Calm Calm Calm Calm Calm SWCalm SW
Wind Gusts -- -- --
Humidity 99% 77% 95%
Pressure 29.56 in1001.0 mb 29.27 in991.2 mb -
Precipitation 0.00 in0.0 mm - -
Hour Temp Dew Point Humidity Winds Wind Gusts Pressure Precip Precip Rate Daily Precip Total
12:00 AM 13.1°F-10.5°C 12.9°F-10.6°C 99% Calm Calm -- 29.58 in1001.7 mb - 0.00 in0.0 mm 0.00 in0.0 mm
01:00 AM 12.9°F-10.6°C 12.7°F-10.7°C 99% Calm Calm -- 29.56 in1001.0 mb - 0.00 in0.0 mm 0.00 in0.0 mm
02:00 AM 13.3°F-10.4°C 13.1°F-10.5°C 99% Calm Calm -- 29.55 in1000.7 mb - 0.00 in0.0 mm 0.00 in0.0 mm
03:00 AM 13.4°F-10.3°C 13.1°F-10.5°C 99% Calm Calm -- 29.54 in1000.3 mb - 0.00 in0.0 mm 0.00 in0.0 mm
04:00 AM 14.7°F-9.6°C 12.6°F-10.8°C 91% Calm Calm -- 29.51 in999.3 mb - 0.00 in0.0 mm 0.00 in0.0 mm
05:00 AM 14.9°F-9.5°C 14.7°F-9.6°C 99% Calm Calm -- 29.48 in998.3 mb - 0.00 in0.0 mm 0.00 in0.0 mm
06:00 AM 13.9°F-10.1°C 13.6°F-10.2°C 99% Calm Calm -- 29.47 in998.0 mb - 0.00 in0.0 mm 0.00 in0.0 mm
07:00 AM 18.0°F-7.8°C 17.8°F-7.9°C 99% Calm Calm -- 29.46 in997.6 mb - 0.00 in0.0 mm 0.00 in0.0 mm
08:00 AM 20.7°F-6.3°C 20.5°F-6.4°C 99% Calm Calm -- 29.45 in997.3 mb - 0.00 in0.0 mm 0.00 in0.0 mm
09:00 AM 22.1°F-5.5°C 21.9°F-5.6°C 99% Calm Calm -- 29.42 in996.3 mb - 0.00 in0.0 mm 0.00 in0.0 mm
10:00 AM 23.8°F-4.6°C 20.5°F-6.4°C 87% Calm Calm -- 29.39 in995.3 mb - 0.00 in0.0 mm 0.00 in0.0 mm
11:00 AM 25.7°F-3.5°C 20.4°F-6.4°C 80% Calm Calm -- 29.39 in995.3 mb - 0.00 in0.0 mm 0.00 in0.0 mm
12:00 PM 27.3°F-2.6°C 27.1°F-2.7°C 99% Calm Calm -- 29.38 in994.9 mb - 0.00 in0.0 mm 0.00 in0.0 mm
01:00 PM 27.5°F-2.5°C 27.3°F-2.6°C 99% Calm Calm -- 29.33 in993.2 mb - 0.00 in0.0 mm 0.00 in0.0 mm
02:00 PM 29.0°F-1.7°C 28.8°F-1.8°C 99% Calm Calm -- 29.32 in992.9 mb - 0.00 in0.0 mm 0.00 in0.0 mm
03:00 PM 30.0°F-1.1°C 24.9°F-3.9°C 81% Calm Calm -- 29.30 in992.2 mb - 0.00 in0.0 mm 0.00 in0.0 mm
04:00 PM 28.9°F-1.7°C 28.7°F-1.8°C 99% Calm Calm -- 29.29 in991.9 mb - 0.00 in0.0 mm 0.00 in0.0 mm
05:00 PM 28.4°F-2.0°C 28.2°F-2.1°C 99% Calm Calm -- 29.27 in991.2 mb - 0.00 in0.0 mm 0.00 in0.0 mm
06:00 PM 26.4°F-3.1°C 26.2°F-3.2°C 99% Calm Calm -- 29.27 in991.2 mb - 0.00 in0.0 mm 0.00 in0.0 mm
07:00 PM 25.3°F-3.7°C 25.1°F-3.8°C 99% Calm Calm -- 29.30 in992.2 mb - 0.00 in0.0 mm 0.00 in0.0 mm
08:00 PM 25.0°F-3.9°C 24.8°F-4.0°C 99% Calm Calm -- 29.30 in992.2 mb - 0.00 in0.0 mm 0.00 in0.0 mm
09:00 PM 24.8°F-4.0°C 24.6°F-4.1°C 99% Calm Calm -- 29.31 in992.6 mb - 0.00 in0.0 mm 0.00 in0.0 mm
10:00 PM 24.6°F-4.1°C 21.0°F-6.1°C 86% Calm Calm -- 29.31 in992.6 mb - 0.00 in0.0 mm 0.00 in0.0 mm
11:00 PM 24.3°F-4.3°C 24.1°F-4.4°C 99% Calm Calm -- 29.33 in993.2 mb - 0.00 in0.0 mm 0.00 in0.0 mm